createdAt,value
2023-02-13T00:00:22.118Z,105
2023-02-13T00:01:28.979Z,102
2023-02-13T00:02:35.961Z,101
2023-02-13T00:03:43.674Z,105
2023-02-13T00:04:50.427Z,103
2023-02-13T00:05:58.151Z,104
2023-02-13T00:07:05.058Z,110
2023-02-13T00:08:11.864Z,108
2023-02-13T00:09:18.839Z,113
2023-02-13T00:10:25.760Z,110
2023-02-13T00:11:32.680Z,109
2023-02-13T00:12:39.508Z,111
2023-02-13T00:13:47.493Z,116
2023-02-13T00:14:54.422Z,109
2023-02-13T00:16:01.478Z,110
2023-02-13T00:17:09.165Z,116
2023-02-13T00:18:15.945Z,112
2023-02-13T00:19:22.866Z,124
2023-02-13T00:20:29.936Z,116
2023-02-13T00:21:37.667Z,119
2023-02-13T00:22:44.640Z,119
2023-02-13T00:23:51.449Z,116
2023-02-13T00:24:59.456Z,122
2023-02-13T00:26:06.423Z,118
2023-02-13T00:27:13.348Z,109
2023-02-13T00:28:20.328Z,109
2023-02-13T00:29:27.196Z,103
2023-02-13T00:30:34.952Z,105
2023-02-13T00:31:42.101Z,106
2023-02-13T00:32:49.702Z,107
2023-02-13T00:33:56.479Z,102
2023-02-13T00:35:03.408Z,107
2023-02-13T00:36:10.461Z,99
2023-02-13T00:37:23.264Z,101
2023-02-13T00:38:30.158Z,109
2023-02-13T00:39:36.945Z,100
2023-02-13T00:40:43.813Z,103
2023-02-13T00:41:50.880Z,101
2023-02-13T00:42:57.813Z,105
2023-02-13T00:44:05.372Z,102
2023-02-13T00:45:12.271Z,97
2023-02-13T00:46:20.002Z,105
2023-02-13T00:47:26.799Z,99
2023-02-13T00:48:34.032Z,96
2023-02-13T00:49:40.956Z,99
2023-02-13T00:50:47.916Z,101
2023-02-13T00:51:57.712Z,95
2023-02-13T00:53:04.488Z,105
2023-02-13T00:54:11.447Z,101
2023-02-13T00:55:18.279Z,96
2023-02-13T00:56:25.325Z,108
2023-02-13T00:57:32.256Z,106
2023-02-13T00:58:39.362Z,105
2023-02-13T00:59:45.991Z,104
2023-02-13T01:00:52.891Z,106
2023-02-13T01:01:59.960Z,105
2023-02-13T01:03:06.841Z,105
2023-02-13T01:04:13.725Z,111
2023-02-13T01:05:20.633Z,109
2023-02-13T01:06:27.459Z,108
2023-02-13T01:07:34.334Z,99
2023-02-13T01:08:42.043Z,100
2023-02-13T01:09:48.995Z,106
2023-02-13T01:10:56.255Z,105
2023-02-13T01:12:02.785Z,99
2023-02-13T01:13:09.705Z,100
2023-02-13T01:14:16.699Z,95
2023-02-13T01:15:24.403Z,102
2023-02-13T01:16:31.243Z,100
2023-02-13T01:17:38.000Z,103
2023-02-13T01:18:44.853Z,104
2023-02-13T01:19:51.720Z,101
2023-02-13T01:20:59.166Z,97
2023-02-13T01:22:05.662Z,97
2023-02-13T01:23:12.490Z,96
2023-02-13T01:24:19.417Z,98
2023-02-13T01:25:26.440Z,95
2023-02-13T01:26:33.324Z,94
2023-02-13T01:27:40.321Z,89
2023-02-13T01:28:47.166Z,92
2023-02-13T01:29:57.067Z,91
2023-02-13T01:31:04.108Z,93
2023-02-13T01:32:11.721Z,88
2023-02-13T01:33:18.672Z,84
2023-02-13T01:34:28.036Z,85
2023-02-13T01:35:35.937Z,83
2023-02-13T01:36:42.826Z,80
2023-02-13T01:37:49.681Z,89
2023-02-13T01:38:56.491Z,87
2023-02-13T01:40:03.378Z,88
2023-02-13T01:41:10.750Z,85
2023-02-13T01:42:17.705Z,85
2023-02-13T01:43:24.569Z,86
2023-02-13T01:44:41.481Z,84
2023-02-13T01:45:48.325Z,81
2023-02-13T01:46:55.268Z,86
2023-02-13T01:48:04.645Z,84
2023-02-13T01:49:09.893Z,82
2023-02-13T01:50:16.797Z,87
2023-02-13T01:51:28.788Z,81
2023-02-13T01:52:36.575Z,84
2023-02-13T01:53:43.462Z,83
2023-02-13T01:54:56.412Z,80
2023-02-13T01:56:04.094Z,84
2023-02-13T01:57:18.911Z,80
2023-02-13T01:58:25.699Z,83
2023-02-13T01:59:32.559Z,79
2023-02-13T02:00:45.046Z,78
2023-02-13T02:01:54.734Z,75
2023-02-13T02:03:01.370Z,79
2023-02-13T02:04:08.271Z,79
2023-02-13T02:05:20.241Z,79
2023-02-13T02:06:27.955Z,81
2023-02-13T02:07:37.918Z,77
2023-02-13T02:08:44.740Z,73
2023-02-13T02:09:51.756Z,78
2023-02-13T02:10:58.862Z,74
2023-02-13T02:12:05.467Z,74
2023-02-13T02:13:18.189Z,72
2023-02-13T02:14:25.045Z,67
2023-02-13T02:15:31.985Z,69
2023-02-13T02:16:38.929Z,70
2023-02-13T02:17:45.815Z,71
2023-02-13T02:18:52.606Z,64
2023-02-13T02:20:00.568Z,64
2023-02-13T02:21:17.522Z,68
2023-02-13T02:22:30.151Z,69
2023-02-13T02:23:37.077Z,68
2023-02-13T02:24:54.028Z,69
2023-02-13T02:26:11.049Z,64
2023-02-13T02:27:25.705Z,65
2023-02-13T02:28:38.713Z,65
2023-02-13T02:29:56.545Z,65
2023-02-13T02:31:13.665Z,71
2023-02-13T02:32:23.339Z,72
2023-02-13T02:33:35.259Z,72
2023-02-13T02:34:44.940Z,70
2023-02-13T02:36:02.037Z,74
2023-02-13T02:37:14.861Z,72
2023-02-13T02:38:27.945Z,69
2023-02-13T02:39:45.015Z,70
2023-02-13T02:40:57.548Z,73
2023-02-13T02:42:11.960Z,69
2023-02-13T02:43:29.198Z,69
2023-02-13T02:44:43.870Z,68
2023-02-13T02:45:54.437Z,69
2023-02-13T02:47:06.664Z,70
2023-02-13T02:48:23.595Z,69
2023-02-13T02:49:35.542Z,68
2023-02-13T02:50:47.440Z,73
2023-02-13T02:52:04.455Z,74
2023-02-13T02:53:11.357Z,71
2023-02-13T02:54:28.326Z,72
2023-02-13T02:55:46.321Z,72
2023-02-13T02:56:53.656Z,71
2023-02-13T02:58:00.495Z,74
2023-02-13T02:59:19.959Z,67
2023-02-13T03:00:32.199Z,67
2023-02-13T03:01:44.059Z,66
2023-02-13T03:02:56.119Z,61
2023-02-13T03:04:08.083Z,61
2023-02-13T03:05:25.650Z,64
2023-02-13T03:06:37.628Z,66
2023-02-13T03:07:52.501Z,59
2023-02-13T03:08:59.366Z,62
2023-02-13T03:10:11.319Z,65
2023-02-13T03:11:26.126Z,65
2023-02-13T03:12:38.006Z,65
2023-02-13T03:13:50.923Z,63
2023-02-13T03:14:58.789Z,62
2023-02-13T03:16:05.682Z,60
2023-02-13T03:17:17.459Z,62
2023-02-13T03:18:29.455Z,62
2023-02-13T03:19:44.382Z,60
2023-02-13T03:21:04.118Z,58
2023-02-13T03:22:18.970Z,63
2023-02-13T03:23:33.821Z,60
2023-02-13T03:24:46.624Z,60
2023-02-13T03:26:02.522Z,61
2023-02-13T03:27:17.242Z,62
2023-02-13T03:28:27.395Z,60
2023-02-13T03:29:47.326Z,60
2023-02-13T03:30:59.790Z,58
2023-02-13T03:32:11.353Z,55
2023-02-13T03:33:21.039Z,58
2023-02-13T03:34:32.854Z,56
2023-02-13T03:35:44.794Z,56
2023-02-13T03:37:01.886Z,55
2023-02-13T03:38:13.770Z,56
2023-02-13T03:39:25.279Z,56
2023-02-13T03:40:42.407Z,54
2023-02-13T03:41:54.414Z,53
2023-02-13T03:43:05.028Z,56
2023-02-13T03:44:12.075Z,47
2023-02-13T03:45:18.907Z,53
2023-02-13T03:46:31.227Z,48
2023-02-13T03:47:38.265Z,51
2023-02-13T03:48:45.098Z,54
2023-02-13T03:49:57.058Z,52
2023-02-13T03:51:09.634Z,50
2023-02-13T03:52:16.534Z,52
2023-02-13T03:53:23.382Z,51
2023-02-13T03:54:30.285Z,49
2023-02-13T03:55:44.919Z,48
2023-02-13T03:56:57.694Z,50
2023-02-13T03:58:09.621Z,49
2023-02-13T03:59:24.455Z,51
2023-02-13T04:00:34.002Z,50
2023-02-13T04:01:43.576Z,51
2023-02-13T04:02:53.333Z,46
2023-02-13T04:04:00.140Z,47
2023-02-13T04:05:13.481Z,56
2023-02-13T04:06:18.901Z,49
2023-02-13T04:07:25.776Z,50
2023-02-13T04:08:32.709Z,48
2023-02-13T04:09:39.674Z,48
2023-02-13T04:10:46.629Z,52
2023-02-13T04:11:56.248Z,50
2023-02-13T04:13:08.288Z,51
2023-02-13T04:14:15.106Z,52
2023-02-13T04:15:23.790Z,49
2023-02-13T04:16:33.907Z,49
2023-02-13T04:17:43.483Z,47
2023-02-13T04:18:53.390Z,47
2023-02-13T04:20:00.216Z,47
2023-02-13T04:21:07.396Z,45
2023-02-13T04:22:14.177Z,43
2023-02-13T04:23:21.127Z,45
2023-02-13T04:24:28.004Z,44
2023-02-13T04:25:34.892Z,45
2023-02-13T04:26:41.773Z,44
2023-02-13T04:27:48.719Z,45
2023-02-13T04:28:56.344Z,45
2023-02-13T04:30:03.197Z,43
2023-02-13T04:31:10.536Z,46
2023-02-13T04:32:18.090Z,48
2023-02-13T04:33:25.024Z,44
2023-02-13T04:34:32.701Z,46
2023-02-13T04:35:39.626Z,47
2023-02-13T04:36:46.548Z,47
2023-02-13T04:37:53.339Z,50
2023-02-13T04:39:00.218Z,51
2023-02-13T04:40:07.103Z,47
2023-02-13T04:41:14.418Z,50
2023-02-13T04:42:21.279Z,57
2023-02-13T04:43:28.110Z,53
2023-02-13T04:44:35.012Z,53
2023-02-13T04:45:41.960Z,55
2023-02-13T04:46:51.585Z,55
2023-02-13T04:47:58.407Z,54
2023-02-13T04:49:05.368Z,54
2023-02-13T04:50:13.930Z,56
2023-02-13T04:51:20.856Z,53
2023-02-13T04:52:27.655Z,51
2023-02-13T04:53:34.606Z,46
2023-02-13T04:54:42.390Z,49
2023-02-13T04:55:49.418Z,42
2023-02-13T04:56:56.492Z,43
2023-02-13T04:58:03.356Z,42
2023-02-13T04:59:10.356Z,42
2023-02-13T05:00:17.547Z,40
2023-02-13T05:01:24.576Z,45
2023-02-13T05:02:31.716Z,43
2023-02-13T05:03:38.535Z,46
2023-02-13T05:04:45.552Z,46
2023-02-13T05:05:52.698Z,45
2023-02-13T05:06:59.485Z,48
2023-02-13T05:08:06.431Z,50
2023-02-13T05:09:13.192Z,52
2023-02-13T05:10:20.106Z,55
2023-02-13T05:11:27.876Z,58
2023-02-13T05:12:34.786Z,59
2023-02-13T05:13:41.645Z,64
2023-02-13T05:14:48.696Z,58
2023-02-13T05:15:55.718Z,65
2023-02-13T05:17:02.703Z,63
2023-02-13T05:18:10.554Z,64
2023-02-13T05:19:17.667Z,57
2023-02-13T05:20:24.612Z,65
2023-02-13T05:21:31.628Z,64
2023-02-13T05:22:43.569Z,63
2023-02-13T05:23:55.453Z,68
2023-02-13T05:25:02.414Z,67
2023-02-13T05:26:09.427Z,62
2023-02-13T05:27:16.363Z,66
2023-02-13T05:28:23.338Z,68
2023-02-13T05:29:35.167Z,62
2023-02-13T05:30:42.091Z,61
2023-02-13T05:31:49.889Z,64
2023-02-13T05:32:56.671Z,65
2023-02-13T05:34:03.647Z,61
2023-02-13T05:35:10.582Z,62
2023-02-13T05:36:17.529Z,68
2023-02-13T05:37:24.479Z,64
2023-02-13T05:38:32.209Z,62
2023-02-13T05:39:39.102Z,60
2023-02-13T05:40:45.995Z,66
2023-02-13T05:41:52.875Z,65
2023-02-13T05:43:00.482Z,65
2023-02-13T05:44:07.462Z,66
2023-02-13T05:45:14.359Z,64
2023-02-13T05:46:21.354Z,62
2023-02-13T05:47:28.183Z,61
2023-02-13T05:48:35.089Z,64
2023-02-13T05:49:41.965Z,60
2023-02-13T05:50:48.873Z,63
2023-02-13T05:51:55.760Z,61
2023-02-13T05:53:02.672Z,67
2023-02-13T05:54:09.578Z,69
2023-02-13T05:55:16.606Z,64
2023-02-13T05:56:23.505Z,63
2023-02-13T05:57:30.441Z,67
2023-02-13T05:58:37.230Z,64
2023-02-13T05:59:44.136Z,63
2023-02-13T06:00:51.056Z,66
2023-02-13T06:02:04.495Z,67
2023-02-13T06:03:11.399Z,60
2023-02-13T06:04:19.275Z,64
2023-02-13T06:05:26.106Z,68
2023-02-13T06:06:33.070Z,65
2023-02-13T06:07:40.033Z,62
2023-02-13T06:08:47.949Z,60
2023-02-13T06:09:54.788Z,59
2023-02-13T06:11:02.076Z,60
2023-02-13T06:12:08.673Z,56
2023-02-13T06:13:15.597Z,52
2023-02-13T06:14:22.546Z,59
2023-02-13T06:15:29.509Z,54
2023-02-13T06:16:36.488Z,56
2023-02-13T06:17:43.373Z,57
2023-02-13T06:18:50.296Z,57
2023-02-13T06:19:57.229Z,58
2023-02-13T06:21:04.076Z,56
2023-02-13T06:22:10.938Z,49
2023-02-13T06:23:17.710Z,55
2023-02-13T06:24:25.588Z,52
2023-02-13T06:25:33.476Z,52
2023-02-13T06:26:40.394Z,57
2023-02-13T06:27:47.263Z,54
2023-02-13T06:28:54.155Z,56
2023-02-13T06:30:01.225Z,51
2023-02-13T06:31:09.962Z,50
2023-02-13T06:32:16.752Z,49
2023-02-13T06:33:23.759Z,51
2023-02-13T06:34:30.607Z,49
2023-02-13T06:35:37.706Z,51
2023-02-13T06:36:44.518Z,49
2023-02-13T06:37:51.489Z,50
2023-02-13T06:38:58.369Z,48
2023-02-13T06:40:06.183Z,47
2023-02-13T06:41:14.202Z,49
2023-02-13T06:42:21.035Z,51
2023-02-13T06:43:28.725Z,50
2023-02-13T06:44:35.610Z,52
2023-02-13T06:45:40.545Z,52
2023-02-13T06:46:47.519Z,49
2023-02-13T06:47:56.466Z,50
2023-02-13T06:49:03.339Z,52
2023-02-13T06:50:10.980Z,50
2023-02-13T06:51:17.790Z,50
2023-02-13T06:52:24.710Z,51
2023-02-13T06:53:31.558Z,48
2023-02-13T06:54:47.123Z,50
2023-02-13T06:55:48.609Z,50
2023-02-13T06:56:55.758Z,54
2023-02-13T06:58:02.709Z,52
2023-02-13T06:59:09.639Z,46
2023-02-13T07:00:17.252Z,50
2023-02-13T07:01:24.280Z,53
2023-02-13T07:02:31.156Z,52
2023-02-13T07:03:38.053Z,48
2023-02-13T07:04:44.926Z,51
2023-02-13T07:05:51.935Z,54
2023-02-13T07:06:58.758Z,50
2023-02-13T07:08:06.448Z,47
2023-02-13T07:09:14.154Z,50
2023-02-13T07:10:21.004Z,54
2023-02-13T07:11:27.867Z,51
2023-02-13T07:12:34.750Z,51
2023-02-13T07:13:42.457Z,51
2023-02-13T07:14:50.823Z,51
2023-02-13T07:15:57.708Z,54
2023-02-13T07:17:04.482Z,53
2023-02-13T07:18:11.337Z,50
2023-02-13T07:19:18.172Z,51
2023-02-13T07:20:25.013Z,54
2023-02-13T07:21:32.023Z,53
2023-02-13T07:22:38.823Z,54
2023-02-13T07:23:45.709Z,57
2023-02-13T07:24:52.633Z,51
2023-02-13T07:25:59.591Z,55
2023-02-13T07:27:06.650Z,52
2023-02-13T07:28:13.675Z,52
2023-02-13T07:29:20.397Z,53
2023-02-13T07:30:27.424Z,48
2023-02-13T07:31:34.285Z,51
2023-02-13T07:32:41.137Z,52
2023-02-13T07:33:48.049Z,51
2023-02-13T07:35:01.873Z,53
2023-02-13T07:36:01.768Z,55
2023-02-13T07:37:08.851Z,53
2023-02-13T07:38:15.710Z,55
2023-02-13T07:39:24.397Z,59
2023-02-13T07:40:33.540Z,59
2023-02-13T07:41:40.340Z,55
2023-02-13T07:42:48.009Z,58
2023-02-13T07:43:55.133Z,63
2023-02-13T07:45:01.932Z,67
2023-02-13T07:46:08.903Z,68
2023-02-13T07:47:19.727Z,64
2023-02-13T07:48:24.354Z,62
2023-02-13T07:49:31.162Z,66
2023-02-13T07:50:38.110Z,65
2023-02-13T07:51:45.097Z,64
2023-02-13T07:52:51.932Z,64
2023-02-13T07:53:58.836Z,58
2023-02-13T07:55:05.697Z,57
2023-02-13T07:56:12.778Z,60
2023-02-13T07:57:19.652Z,59
2023-02-13T07:58:27.263Z,57
2023-02-13T07:59:34.098Z,57
2023-02-13T08:00:40.944Z,58
2023-02-13T08:01:47.853Z,59
2023-02-13T08:02:55.439Z,57
2023-02-13T08:04:02.490Z,58
2023-02-13T08:05:09.310Z,57
2023-02-13T08:06:16.134Z,64
2023-02-13T08:07:22.985Z,66
2023-02-13T08:08:29.943Z,66
2023-02-13T08:09:38.475Z,71
2023-02-13T08:10:48.859Z,63
2023-02-13T08:12:00.970Z,59
2023-02-13T08:13:08.088Z,54
2023-02-13T08:14:14.982Z,58
2023-02-13T08:15:21.876Z,59
2023-02-13T08:16:28.761Z,55
2023-02-13T08:17:35.545Z,65
2023-02-13T08:18:44.090Z,55
2023-02-13T08:19:51.008Z,59
2023-02-13T08:20:57.854Z,54
2023-02-13T08:22:04.640Z,50
2023-02-13T08:23:11.543Z,52
2023-02-13T08:24:18.485Z,54
2023-02-13T08:25:25.783Z,53
2023-02-13T08:26:32.710Z,55
2023-02-13T08:27:40.609Z,53
2023-02-13T08:28:47.442Z,57
2023-02-13T08:29:54.350Z,54
2023-02-13T08:31:01.321Z,50
2023-02-13T08:32:08.250Z,53
2023-02-13T08:33:15.106Z,52
2023-02-13T08:34:22.010Z,49
2023-02-13T08:35:28.910Z,50
2023-02-13T08:36:35.921Z,53
2023-02-13T08:37:42.828Z,54
2023-02-13T08:38:49.687Z,49
2023-02-13T08:39:56.606Z,52
2023-02-13T08:41:03.463Z,55
2023-02-13T08:42:12.065Z,53
2023-02-13T08:43:17.190Z,51
2023-02-13T08:44:24.019Z,53
2023-02-13T08:45:30.983Z,57
2023-02-13T08:46:37.911Z,55
2023-02-13T08:47:44.775Z,55
2023-02-13T08:48:51.574Z,51
2023-02-13T08:49:58.408Z,54
2023-02-13T08:51:05.270Z,56
2023-02-13T08:52:14.918Z,54
2023-02-13T08:53:21.875Z,52
2023-02-13T08:54:28.827Z,55
2023-02-13T08:55:35.696Z,55
2023-02-13T08:56:42.465Z,55
2023-02-13T08:57:49.402Z,55
2023-02-13T08:58:56.314Z,51
2023-02-13T09:00:03.455Z,50
2023-02-13T09:01:10.730Z,61
2023-02-13T09:02:18.492Z,59
2023-02-13T09:03:25.450Z,66
2023-02-13T09:04:32.351Z,53
2023-02-13T09:05:40.134Z,51
2023-02-13T09:06:47.072Z,57
2023-02-13T09:07:53.914Z,63
2023-02-13T09:09:03.401Z,56
2023-02-13T09:10:10.206Z,57
2023-02-13T09:11:17.095Z,58
2023-02-13T09:12:24.699Z,65
2023-02-13T09:13:31.566Z,63
2023-02-13T09:14:38.465Z,67
2023-02-13T09:15:45.340Z,68
2023-02-13T09:16:52.223Z,72
2023-02-13T09:17:59.087Z,68
2023-02-13T09:19:06.017Z,63
2023-02-13T09:20:12.924Z,55
2023-02-13T09:21:19.896Z,59
2023-02-13T09:22:26.769Z,55
2023-02-13T09:23:33.989Z,55
2023-02-13T09:24:40.928Z,58
2023-02-13T09:25:47.834Z,60
2023-02-13T09:26:54.601Z,59
2023-02-13T09:28:01.504Z,63
2023-02-13T09:29:08.300Z,58
2023-02-13T09:30:15.151Z,55
2023-02-13T09:31:22.220Z,61
2023-02-13T09:32:31.842Z,58
2023-02-13T09:33:38.931Z,55
2023-02-13T09:34:45.858Z,50
2023-02-13T09:35:52.803Z,49
2023-02-13T09:36:59.714Z,50
2023-02-13T09:38:06.604Z,53
2023-02-13T09:39:13.441Z,52
2023-02-13T09:40:20.507Z,51
2023-02-13T09:41:27.495Z,52
2023-02-13T09:42:35.184Z,47
2023-02-13T09:43:42.055Z,54
2023-02-13T09:44:54.048Z,53
2023-02-13T09:46:03.990Z,52
2023-02-13T09:47:10.837Z,52
2023-02-13T09:48:25.488Z,47
2023-02-13T09:49:32.357Z,56
2023-02-13T09:50:39.194Z,54
2023-02-13T09:51:46.163Z,50
2023-02-13T09:52:53.047Z,55
2023-02-13T09:54:00.032Z,51
2023-02-13T09:55:09.737Z,58
2023-02-13T09:56:16.672Z,59
2023-02-13T09:57:26.188Z,57
2023-02-13T09:58:38.150Z,57
2023-02-13T09:59:47.836Z,48
2023-02-13T10:00:59.833Z,53
2023-02-13T10:02:06.792Z,63
2023-02-13T10:03:21.833Z,56
2023-02-13T10:04:33.861Z,55
2023-02-13T10:05:50.856Z,44
2023-02-13T10:07:02.696Z,48
2023-02-13T10:08:09.683Z,45
2023-02-13T10:09:26.684Z,40
2023-02-13T10:10:36.245Z,46
2023-02-13T10:11:46.948Z,45
2023-02-13T10:13:01.877Z,41
2023-02-13T10:14:11.318Z,40
2023-02-13T10:15:18.164Z,44
2023-02-13T10:16:35.122Z,41
2023-02-13T10:17:44.686Z,40
2023-02-13T10:18:51.477Z,39
2023-02-13T10:20:06.188Z,41
2023-02-13T10:21:23.155Z,33
2023-02-13T10:22:30.012Z,32
2023-02-13T10:23:36.783Z,31
2023-02-13T10:24:48.816Z,30
2023-02-13T10:26:01.063Z,33
2023-02-13T10:27:07.668Z,36
2023-02-13T10:28:22.467Z,33
2023-02-13T10:29:39.479Z,34
2023-02-13T10:30:51.536Z,32
2023-02-13T10:31:58.402Z,29
2023-02-13T10:33:05.061Z,30
2023-02-13T10:34:16.900Z,28
2023-02-13T10:35:23.741Z,31
2023-02-13T10:36:30.652Z,33
2023-02-13T10:37:38.354Z,40
2023-02-13T10:38:45.311Z,42
2023-02-13T10:39:59.784Z,43
2023-02-13T10:41:06.705Z,40
2023-02-13T10:42:23.684Z,40
2023-02-13T10:43:38.317Z,39
2023-02-13T10:44:55.364Z,35
2023-02-13T10:46:07.267Z,36
2023-02-13T10:47:22.301Z,35
2023-02-13T10:48:34.268Z,36
2023-02-13T10:49:49.161Z,33
2023-02-13T10:51:01.145Z,31
2023-02-13T10:52:18.153Z,28
2023-02-13T10:53:30.073Z,30
2023-02-13T10:54:41.892Z,31
2023-02-13T10:55:59.126Z,29
2023-02-13T10:57:13.513Z,29
2023-02-13T10:58:24.228Z,29
2023-02-13T10:59:36.083Z,32
2023-02-13T11:00:43.520Z,32
2023-02-13T11:02:01.498Z,27
2023-02-13T11:03:13.403Z,28
2023-02-13T11:04:23.251Z,29
2023-02-13T11:05:30.926Z,29
2023-02-13T11:06:41.516Z,25
2023-02-13T11:07:53.438Z,27
2023-02-13T11:09:00.282Z,29
2023-02-13T11:10:07.133Z,27
2023-02-13T11:11:18.942Z,28
2023-02-13T11:12:30.890Z,27
2023-02-13T11:13:37.770Z,25
2023-02-13T11:14:44.673Z,25
2023-02-13T11:15:57.081Z,24
2023-02-13T11:17:09.470Z,28
2023-02-13T11:18:18.503Z,28
2023-02-13T11:19:23.279Z,21
2023-02-13T11:20:32.924Z,19
2023-02-13T11:21:39.738Z,17
2023-02-13T11:22:46.671Z,20
2023-02-13T11:23:54.297Z,17
2023-02-13T11:25:01.141Z,19
2023-02-13T11:26:15.676Z,18
2023-02-13T11:27:30.343Z,18
2023-02-13T11:28:37.270Z,21
2023-02-13T11:29:49.210Z,26
2023-02-13T11:30:59.199Z,23
2023-02-13T11:32:06.093Z,23
2023-02-13T11:33:17.922Z,22
2023-02-13T11:34:27.836Z,26
2023-02-13T11:35:34.673Z,27
2023-02-13T11:36:41.599Z,25
2023-02-13T11:37:49.248Z,25
2023-02-13T11:39:06.445Z,24
2023-02-13T11:40:18.292Z,26
2023-02-13T11:41:25.203Z,25
2023-02-13T11:42:32.177Z,25
2023-02-13T11:43:39.072Z,26
2023-02-13T11:44:51.680Z,23
2023-02-13T11:45:58.712Z,26
2023-02-13T11:47:10.945Z,24
2023-02-13T11:48:17.825Z,30
2023-02-13T11:49:24.683Z,37
2023-02-13T11:50:34.378Z,36
2023-02-13T11:51:41.292Z,35
2023-02-13T11:52:56.218Z,44
2023-02-13T11:54:06.105Z,33
2023-02-13T11:55:23.135Z,39
2023-02-13T11:56:33.139Z,41
2023-02-13T11:57:50.190Z,34
2023-02-13T11:59:02.266Z,33
2023-02-13T12:00:09.050Z,42
2023-02-13T12:01:27.009Z,49
2023-02-13T12:02:33.808Z,48
2023-02-13T12:03:48.498Z,31
2023-02-13T12:05:02.426Z,29
2023-02-13T12:06:14.362Z,32
2023-02-13T12:07:21.251Z,34
2023-02-13T12:08:30.986Z,59
2023-02-13T12:09:37.825Z,58
2023-02-13T12:10:44.692Z,42
2023-02-13T12:11:51.703Z,55
2023-02-13T12:12:58.521Z,62
2023-02-13T12:14:05.315Z,63
2023-02-13T12:15:15.148Z,37
2023-02-13T12:16:28.042Z,42
2023-02-13T12:17:34.869Z,53
2023-02-13T12:18:41.716Z,51
2023-02-13T12:19:49.494Z,35
2023-02-13T12:20:56.701Z,37
2023-02-13T12:22:06.377Z,37
2023-02-13T12:23:16.257Z,38
2023-02-13T12:24:23.258Z,29
2023-02-13T12:25:35.318Z,27
2023-02-13T12:26:50.050Z,29
2023-02-13T12:28:01.990Z,30
2023-02-13T12:29:13.861Z,31
2023-02-13T12:30:28.580Z,35
2023-02-13T12:31:43.424Z,32
2023-02-13T12:32:56.141Z,31
2023-02-13T12:34:10.918Z,29
2023-02-13T12:35:17.826Z,30
2023-02-13T12:36:30.656Z,31
2023-02-13T12:37:37.557Z,33
2023-02-13T12:38:49.497Z,33
2023-02-13T12:39:56.497Z,30
2023-02-13T12:41:10.939Z,32
2023-02-13T12:42:22.833Z,41
2023-02-13T12:43:32.614Z,40
2023-02-13T12:44:44.552Z,31
2023-02-13T12:45:56.485Z,37
2023-02-13T12:47:11.072Z,33
2023-02-13T12:48:20.969Z,41
2023-02-13T12:49:37.962Z,33
2023-02-13T12:50:52.666Z,29
2023-02-13T12:52:04.598Z,32
2023-02-13T12:53:21.554Z,30
2023-02-13T12:54:39.354Z,30
2023-02-13T12:55:57.330Z,31
2023-02-13T12:57:10.378Z,30
2023-02-13T12:58:20.380Z,29
2023-02-13T12:59:32.312Z,29
2023-02-13T13:00:46.954Z,29
2023-02-13T13:02:03.977Z,26
2023-02-13T13:03:16.490Z,26
2023-02-13T13:04:26.415Z,25
2023-02-13T13:05:45.186Z,23
2023-02-13T13:06:55.680Z,26
2023-02-13T13:08:02.535Z,25
2023-02-13T13:09:17.172Z,26
2023-02-13T13:10:34.162Z,26
2023-02-13T13:11:49.212Z,21
2023-02-13T13:13:01.873Z,23
2023-02-13T13:14:15.654Z,25
2023-02-13T13:15:23.812Z,22
2023-02-13T13:16:37.937Z,22
2023-02-13T13:17:50.674Z,23
2023-02-13T13:19:07.702Z,24
2023-02-13T13:20:24.680Z,24
2023-02-13T13:21:43.030Z,25
2023-02-13T13:22:57.308Z,31
2023-02-13T13:24:15.090Z,27
2023-02-13T13:25:32.161Z,32
2023-02-13T13:26:39.032Z,27
2023-02-13T13:27:45.965Z,20
2023-02-13T13:28:52.897Z,22
2023-02-13T13:29:59.766Z,22
2023-02-13T13:31:16.812Z,21
2023-02-13T13:32:23.575Z,21
2023-02-13T13:33:30.433Z,24
2023-02-13T13:34:37.264Z,22
2023-02-13T13:35:44.101Z,23
2023-02-13T13:36:59.795Z,23
2023-02-13T13:38:07.489Z,24
2023-02-13T13:39:19.977Z,22
2023-02-13T13:40:37.862Z,22
2023-02-13T13:41:44.737Z,22
2023-02-13T13:42:54.346Z,24
2023-02-13T13:44:06.317Z,24
2023-02-13T13:45:18.188Z,22
2023-02-13T13:46:30.803Z,23
2023-02-13T13:47:40.452Z,25
2023-02-13T13:48:55.247Z,22
2023-02-13T13:50:12.200Z,21
2023-02-13T13:51:24.193Z,22
2023-02-13T13:52:32.660Z,23
2023-02-13T13:53:42.069Z,24
2023-02-13T13:54:59.056Z,22
2023-02-13T13:56:06.748Z,22
2023-02-13T13:57:13.779Z,24
2023-02-13T13:58:24.677Z,23
2023-02-13T13:59:39.337Z,25
2023-02-13T14:00:49.000Z,27
2023-02-13T14:02:06.058Z,28
2023-02-13T14:03:20.908Z,29
2023-02-13T14:04:27.872Z,27
2023-02-13T14:05:34.772Z,27
2023-02-13T14:06:51.810Z,29
2023-02-13T14:08:01.457Z,26
2023-02-13T14:09:10.762Z,25
2023-02-13T14:10:27.848Z,40
2023-02-13T14:11:35.540Z,255
2023-02-13T14:12:42.432Z,216
2023-02-13T14:13:51.910Z,266
2023-02-13T14:14:58.693Z,61
2023-02-13T14:16:05.907Z,193
2023-02-13T14:17:12.751Z,172
2023-02-13T14:18:19.623Z,185
2023-02-13T14:19:27.330Z,199
2023-02-13T14:20:39.240Z,152
2023-02-13T14:21:51.218Z,126
2023-02-13T14:22:58.800Z,69
2023-02-13T14:24:13.350Z,30
2023-02-13T14:25:20.344Z,26
2023-02-13T14:26:27.263Z,26
2023-02-13T14:27:36.753Z,27
2023-02-13T14:28:43.612Z,41
2023-02-13T14:29:53.343Z,29
2023-02-13T14:31:00.521Z,26
2023-02-13T14:32:07.414Z,25
2023-02-13T14:33:19.412Z,26
2023-02-13T14:34:27.361Z,24
2023-02-13T14:35:35.123Z,26
2023-02-13T14:36:45.861Z,27
2023-02-13T14:37:52.854Z,21
2023-02-13T14:39:02.677Z,22
2023-02-13T14:40:14.651Z,21
2023-02-13T14:41:21.592Z,21
2023-02-13T14:42:38.615Z,21
2023-02-13T14:43:48.932Z,21
2023-02-13T14:44:55.762Z,19
2023-02-13T14:46:02.862Z,15
2023-02-13T14:47:12.468Z,18
2023-02-13T14:48:24.386Z,18
2023-02-13T14:49:36.194Z,19
2023-02-13T14:50:43.099Z,18
2023-02-13T14:51:50.156Z,18
2023-02-13T14:52:58.699Z,17
2023-02-13T14:54:05.688Z,19
2023-02-13T14:55:12.968Z,23
2023-02-13T14:56:24.619Z,27
2023-02-13T14:57:32.524Z,25
2023-02-13T14:58:39.375Z,28
2023-02-13T14:59:46.222Z,26
2023-02-13T15:00:53.230Z,29
2023-02-13T15:02:05.920Z,23
2023-02-13T15:03:22.995Z,16
2023-02-13T15:04:40.077Z,14
2023-02-13T15:05:51.159Z,15
2023-02-13T15:07:04.142Z,13
2023-02-13T15:08:11.039Z,14
2023-02-13T15:09:19.522Z,13
2023-02-13T15:10:30.258Z,13
2023-02-13T15:11:43.206Z,16
2023-02-13T15:12:49.882Z,14
2023-02-13T15:13:59.478Z,16
2023-02-13T15:15:16.485Z,19
2023-02-13T15:16:27.353Z,77
2023-02-13T15:17:34.302Z,39
2023-02-13T15:18:43.832Z,176
2023-02-13T15:19:51.550Z,129
2023-02-13T15:20:58.845Z,108
2023-02-13T15:22:05.260Z,47
2023-02-13T15:23:12.108Z,141
2023-02-13T15:24:24.179Z,279
2023-02-13T15:25:33.812Z,117
2023-02-13T15:26:43.360Z,59
2023-02-13T15:27:56.393Z,163
2023-02-13T15:29:03.658Z,282
2023-02-13T15:30:18.054Z,232
2023-02-13T15:31:27.812Z,202
2023-02-13T15:32:34.588Z,182
2023-02-13T15:33:43.216Z,239
2023-02-13T15:34:52.683Z,232
2023-02-13T15:35:59.571Z,67
2023-02-13T15:37:06.548Z,70
2023-02-13T15:38:13.411Z,100
2023-02-13T15:39:30.571Z,84
2023-02-13T15:40:37.429Z,87
2023-02-13T15:41:45.178Z,70
2023-02-13T15:42:52.038Z,53
2023-02-13T15:43:59.031Z,49
2023-02-13T15:45:06.679Z,37
2023-02-13T15:46:13.724Z,33
2023-02-13T15:47:28.262Z,32
2023-02-13T15:48:35.422Z,38
2023-02-13T15:49:42.425Z,33
2023-02-13T15:50:49.390Z,41
2023-02-13T15:51:56.234Z,66
2023-02-13T15:53:08.874Z,40
2023-02-13T15:54:15.811Z,33
2023-02-13T15:55:28.718Z,29
2023-02-13T15:56:36.493Z,30
2023-02-13T15:57:45.853Z,36
2023-02-13T15:58:52.787Z,32
2023-02-13T15:59:59.647Z,32
2023-02-13T16:01:07.567Z,33
2023-02-13T16:02:14.611Z,30
2023-02-13T16:03:21.657Z,34
2023-02-13T16:04:28.514Z,47
2023-02-13T16:05:39.729Z,39
2023-02-13T16:06:43.056Z,35
2023-02-13T16:07:49.966Z,42
2023-02-13T16:08:56.937Z,54
2023-02-13T16:10:03.875Z,51
2023-02-13T16:11:18.659Z,69
2023-02-13T16:12:33.506Z,67
2023-02-13T16:13:40.399Z,61
2023-02-13T16:14:54.833Z,59
2023-02-13T16:16:01.837Z,38
2023-02-13T16:17:08.688Z,27
2023-02-13T16:18:19.369Z,25
2023-02-13T16:19:26.467Z,25
2023-02-13T16:20:35.888Z,31
2023-02-13T16:21:42.915Z,26